Crown Of Scandinavia — OXRA6 — position and weather

sailwx.info

Track history (hours):
 
Tides and Currents Weather Stations Pressure Air Temp Water Temp Dewpoint Dewpoint Depression Visibility Wind Speed Wind Dir Waves Ship Positions

Crown Of Scandinavia

Last reported at 2018-May-26 13:29 UTC. Time now 2018-May-26 13:49 UTC.
Position N 59°54' E 010°45'.

Length 171 m; draft 6.3 m.

Type: Ship. MMSI: 219592000.

Date/timePositionNaut miles runAvg speedWind from/ knotsBaromVisibWave heightAir tempDewpointWater temp
2018-May-26 13:29N 59°54' E 010°45'0 0.0
2018-May-26 12:59N 59°54' E 010°45'0 0.0
2018-May-26 12:29N 59°54' E 010°45'0 0.0
2018-May-26 11:59N 59°54' E 010°45'0 0.0
2018-May-26 11:29N 59°54' E 010°45'0 0.0
2018-May-26 10:59N 59°54' E 010°45'0 0.0
2018-May-26 10:29N 59°54' E 010°45'0 0.0
2018-May-26 09:59N 59°54' E 010°45'0 0.0
2018-May-26 09:29N 59°54' E 010°45'0 0.0
2018-May-26 08:59N 59°54' E 010°45'0 0.0
2018-May-26 08:29N 59°54' E 010°45'0 0.0
2018-May-26 07:59N 59°54' E 010°45'1 1.8
2018-May-26 07:30N 59°54' E 010°43'714.4
2018-May-26 07:00N 59°48' E 010°35'714.9
2018-May-26 06:31N 59°41' E 010°37'1313.1
2018-May-26 05:30N 59°28' E 010°34'714.8
2018-May-26 05:00N 59°20' E 010°36'714.8
2018-May-26 04:30N 59°13' E 010°38'714.7
2018-May-26 04:00N 59°06' E 010°39'815.1
2018-May-26 03:30N 58°58' E 010°39'714.9
2018-May-26 03:01N 58°51' E 010°39'815.6
2018-May-26 02:30N 58°43' E 010°39'815.7
2018-May-26 02:00N 58°35' E 010°39'815.3
2018-May-26 01:30N 58°27' E 010°39'815.6
2018-May-26 01:00N 58°20' E 010°44'816.1
2018-May-26 00:29N 58°12' E 010°49'816.3
2018-May-26 00:00N 58°05' E 010°55'917.0
2018-May-25 23:30N 57°57' E 011°00'817.0
2018-May-25 23:00N 57°49' E 011°06'917.3
2018-May-25 22:30N 57°41' E 011°13'917.1
2018-May-25 22:00N 57°34' E 011°21'816.7
2018-May-25 21:30N 57°26' E 011°28'917.1
2018-May-25 21:00N 57°18' E 011°33'917.7
2018-May-25 20:30N 57°10' E 011°38'4217.1
2018-May-25 18:04N 56°32' E 012°12'116.4
2018-May-25 18:00N 56°31' E 012°12'816.2
2018-May-25 17:30N 56°24' E 012°18'916.8
2018-May-25 16:59N 56°16' E 012°25'817.0
2018-May-25 16:30N 56°09' E 012°30'816.8
2018-May-25 16:00N 56°02' E 012°40'816.2
2018-May-25 15:31N 55°55' E 012°45'816.0
2018-May-25 15:00N 55°47' E 012°42'611.3
2018-May-25 14:30N 55°42' E 012°36'0 0.0
2018-May-25 14:00N 55°42' E 012°36'0 0.0
2018-May-25 13:30N 55°42' E 012°36'0 0.0
2018-May-25 13:00N 55°42' E 012°36'0 0.0
2018-May-25 12:30N 55°42' E 012°36'0 0.0
2018-May-25 12:00N 55°42' E 012°36'0 0.0
2018-May-25 11:30N 55°42' E 012°36'0 0.0
2018-May-25 11:00N 55°42' E 012°36'0 0.0
2018-May-25 10:30N 55°42' E 012°36'0 0.0
2018-May-25 10:00N 55°42' E 012°36'0 0.0
2018-May-25 09:30N 55°42' E 012°36'0 0.0
2018-May-25 09:00N 55°42' E 012°36'0 0.0
2018-May-25 08:30N 55°42' E 012°36'0 0.0
2018-May-25 08:00N 55°42' E 012°36'0 0.7
2018-May-25 07:31N 55°42' E 012°36'612.0
2018-May-25 07:01N 55°47' E 012°42'815.9
2018-May-25 06:31N 55°55' E 012°39'816.1
2018-May-25 06:00N 56°03' E 012°39'815.4
2018-May-25 05:31N 56°09' E 012°30'815.4
2018-May-25 05:00N 56°16' E 012°24'815.8
2018-May-25 04:29N 56°24' E 012°20'1216.7
2018-May-25 03:46N 56°36' E 012°13'416.4
2018-May-25 03:30N 56°40' E 012°11'1616.0
2018-May-25 02:29N 56°55' E 012°02'1116.3
2018-May-25 01:49N 57°06' E 011°56'516.4
2018-May-25 01:30N 57°11' E 011°54'816.5
2018-May-25 01:01N 57°18' E 011°48'816.5
2018-May-25 00:31N 57°25' E 011°41'816.9
2018-May-25 00:01N 57°33' E 011°33'917.2
2018-May-24 23:30N 57°41' E 011°28'917.0
2018-May-24 23:00N 57°49' E 011°22'816.9
2018-May-24 22:31N 57°57' E 011°16'816.7
2018-May-24 22:00N 58°05' E 011°10'816.5
2018-May-24 21:30N 58°11' E 011°00'816.2
2018-May-24 21:00N 58°17' E 010°50'816.5
2018-May-24 20:31N 58°24' E 010°42'816.6
2018-May-24 20:01N 58°32' E 010°37'817.0
2018-May-24 19:30N 58°40' E 010°36'816.8
2018-May-24 19:00N 58°49' E 010°34'816.6
2018-May-24 18:30N 58°57' E 010°36'816.9
2018-May-24 18:01N 59°05' E 010°38'816.5
2018-May-24 17:31N 59°14' E 010°37'816.9
2018-May-24 17:00N 59°22' E 010°34'816.6
2018-May-24 16:31N 59°30' E 010°35'713.2
2018-May-24 16:00N 59°37' E 010°38'611.5
2018-May-24 15:30N 59°42' E 010°35'715.0
2018-May-24 15:00N 59°50' E 010°35'712.3
2018-May-24 14:28N 59°54' E 010°45'0 0.4
2018-May-24 14:00N 59°54' E 010°45'0 0.0
2018-May-24 13:31N 59°54' E 010°45'0 0.0
2018-May-24 09:01N 59°54' E 010°45'0 0.0
2018-May-24 08:30N 59°54' E 010°45'0 0.0
2018-May-24 08:01N 59°54' E 010°45'1 2.5
2018-May-24 07:30N 59°54' E 010°42'815.7
2018-May-24 07:00N 59°47' E 010°35'714.0
2018-May-24 06:30N 59°40' E 010°37'713.1
2018-May-24 06:00N 59°34' E 010°38'715.0
2018-May-24 05:30N 59°26' E 010°34'815.0
2018-May-24 05:01N 59°19' E 010°36'815.3
2018-May-24 04:31N 59°11' E 010°39'815.5
2018-May-24 04:01N 59°04' E 010°41'815.5
2018-May-24 03:31N 58°56' E 010°42'815.2
2018-May-24 03:00N 58°48' E 010°44'815.8
2018-May-24 02:31N 58°41' E 010°46'815.7
2018-May-24 02:01N 58°33' E 010°50'815.8
2018-May-24 01:31N 58°25' E 010°54'815.8
2018-May-24 01:00N 58°18' E 010°59'816.0
2018-May-24 00:31N 58°10' E 011°03'816.0
2018-May-24 00:01N 58°03' E 011°07'816.2
2018-May-23 23:30N 57°55' E 011°12'816.3
2018-May-23 23:00N 57°47' E 011°17'816.2
2018-May-23 22:31N 57°40' E 011°22'816.1
2018-May-23 22:01N 57°32' E 011°26'816.7
2018-May-23 21:30N 57°24' E 011°31'917.0
2018-May-23 21:00N 57°16' E 011°35'816.8
2018-May-23 20:31N 57°08' E 011°41'916.9
2018-May-23 20:00N 56°60' E 011°47'816.8
2018-May-23 19:31N 56°52' E 011°54'816.9
2018-May-23 19:01N 56°45' E 012°01'816.6
2018-May-23 18:30N 56°37' E 012°08'3116.4
2018-May-23 16:38N 56°09' E 012°30'217.1
2018-May-23 16:30N 56°08' E 012°32'816.5
2018-May-23 16:01N 56°01' E 012°40'815.9
2018-May-23 15:31N 55°53' E 012°44'714.7
2018-May-23 15:00N 55°46' E 012°41'510.2
2018-May-23 14:30N 55°42' E 012°36'0 0.0
2018-May-23 14:00N 55°42' E 012°36'0 0.0
2018-May-23 13:30N 55°42' E 012°36'0 0.0
2018-May-23 13:00N 55°42' E 012°36'0 0.0
2018-May-23 12:30N 55°42' E 012°36'0 0.0
2018-May-23 12:00N 55°42' E 012°36'0 0.0
2018-May-23 11:30N 55°42' E 012°36'0 0.0
2018-May-23 11:00N 55°42' E 012°36'0 0.0
2018-May-23 10:30N 55°42' E 012°36'0 0.0
2018-May-23 09:57N 55°42' E 012°36'0 0.0
2018-May-23 09:30N 55°42' E 012°36'0 0.0
2018-May-23 09:00N 55°42' E 012°36'0 0.0
2018-May-23 08:30N 55°42' E 012°36'0 0.0
2018-May-23 08:00N 55°42' E 012°36'0 0.8
2018-May-23 07:30N 55°42' E 012°36'611.9
2018-May-23 07:00N 55°47' E 012°42'815.4
2018-May-23 06:30N 55°55' E 012°39'815.9
2018-May-23 06:00N 56°03' E 012°39'815.6
2018-May-23 05:30N 56°08' E 012°29'815.2
2018-May-23 05:00N 56°16' E 012°25'815.9
2018-May-23 04:30N 56°23' E 012°21'916.2
2018-May-23 03:56N 56°32' E 012°15'3616.3
2018-May-23 01:45N 57°06' E 011°57'416.4
2018-May-23 01:29N 57°10' E 011°54'816.4
2018-May-23 01:00N 57°17' E 011°48'816.7
2018-May-23 00:31N 57°25' E 011°41'917.0
2018-May-23 00:00N 57°32' E 011°33'917.4
2018-May-22 23:31N 57°40' E 011°28'816.9
2018-May-22 23:00N 57°48' E 011°22'817.0
2018-May-22 22:30N 57°56' E 011°17'816.9
2018-May-22 22:00N 58°04' E 011°12'816.6
2018-May-22 21:30N 58°12' E 011°06'816.3
2018-May-22 21:00N 58°20' E 011°01'816.3
2018-May-22 20:30N 58°27' E 010°55'816.4
2018-May-22 20:00N 58°35' E 010°50'816.0
2018-May-22 19:30N 58°43' E 010°45'816.2
2018-May-22 19:00N 58°51' E 010°43'816.9
2018-May-22 18:30N 58°59' E 010°41'816.7
2018-May-22 18:00N 59°07' E 010°39'816.5
2018-May-22 17:30N 59°15' E 010°37'816.4
2018-May-22 17:00N 59°24' E 010°34'816.2
2018-May-22 16:30N 59°32' E 010°35'713.4
2018-May-22 16:00N 59°38' E 010°37'713.8
2018-May-22 15:30N 59°45' E 010°33'816.1
2018-May-22 15:00N 59°52' E 010°38'4 7.4
2018-May-22 14:31N 59°54' E 010°45'0 0.0
2018-May-22 13:59N 59°54' E 010°45'0 0.0
2018-May-22 13:29N 59°54' E 010°45'0 0.0
2018-May-22 12:59N 59°54' E 010°45'0 0.0
2018-May-22 12:29N 59°54' E 010°45'0 0.0
2018-May-22 11:59N 59°54' E 010°45'0 0.0
2018-May-22 11:29N 59°54' E 010°45'0 0.0
2018-May-22 10:59N 59°54' E 010°45'0 0.0
2018-May-22 10:29N 59°54' E 010°45'0 0.0
2018-May-22 09:59N 59°54' E 010°45'0 0.0
2018-May-22 09:29N 59°54' E 010°45'0 0.0
2018-May-22 08:59N 59°54' E 010°45'0 0.0
2018-May-22 08:29N 59°54' E 010°45'0 0.0
2018-May-22 07:59N 59°54' E 010°45'0 0.5
2018-May-22 07:31N 59°54' E 010°44'612.0
2018-May-22 07:00N 59°50' E 010°36'713.9
2018-May-22 06:30N 59°43' E 010°35'713.7
2018-May-22 06:00N 59°36' E 010°38'815.0
2018-May-22 05:30N 59°29' E 010°35'714.9
2018-May-22 05:00N 59°21' E 010°36'815.3
2018-May-22 04:31N 59°14' E 010°39'815.4
2018-May-22 04:00N 59°06' E 010°40'815.8
2018-May-22 03:30N 58°58' E 010°42'815.2
2018-May-22 03:00N 58°51' E 010°44'815.4
2018-May-22 02:31N 58°43' E 010°45'816.3
2018-May-22 02:01N 58°35' E 010°50'816.5
2018-May-22 01:30N 58°28' E 010°55'816.5
2018-May-22 01:00N 58°20' E 010°60'816.4
2018-May-22 00:30N 58°12' E 011°05'816.2
2018-May-22 00:00N 58°05' E 011°11'816.1
2018-May-21 23:30N 57°57' E 011°16'816.2
2018-May-21 23:01N 57°49' E 011°21'816.4
2018-May-21 22:31N 57°42' E 011°28'816.2
2018-May-21 22:00N 57°34' E 011°32'816.3
2018-May-21 21:30N 57°27' E 011°38'816.5
2018-May-21 21:00N 57°20' E 011°45'816.7
2018-May-21 20:30N 57°13' E 011°54'816.4
2018-May-21 20:01N 57°05' E 011°60'816.3
2018-May-21 19:30N 56°57' E 012°05'1215.8
2018-May-21 18:44N 56°46' E 012°12'3716.6
2018-May-21 16:30N 56°10' E 012°29'917.8
2018-May-21 16:01N 56°03' E 012°39'816.8
2018-May-21 15:30N 55°55' E 012°44'816.1
2018-May-21 15:00N 55°47' E 012°42'611.7
2018-May-21 14:30N 55°42' E 012°37'1 1.1
2018-May-21 14:00N 55°42' E 012°36'0 0.0
2018-May-21 13:30N 55°42' E 012°36'0 0.0
2018-May-21 13:00N 55°42' E 012°36'0 0.0
2018-May-21 12:30N 55°42' E 012°36'0 0.0
2018-May-21 12:00N 55°42' E 012°36'0 0.0
2018-May-21 11:30N 55°42' E 012°36'0 0.0
2018-May-21 11:00N 55°42' E 012°36'0 0.0
2018-May-21 10:30N 55°42' E 012°36'0 0.0
2018-May-21 10:00N 55°42' E 012°36'0 0.0
2018-May-21 09:30N 55°42' E 012°36'0 0.0
2018-May-21 09:00N 55°42' E 012°36'0 0.0
2018-May-21 08:30N 55°42' E 012°36'0 0.0
2018-May-21 08:00N 55°42' E 012°36'1 2.0
2018-May-21 07:30N 55°43' E 012°37'613.0
2018-May-21 07:01N 55°49' E 012°42'714.8
2018-May-21 06:31N 55°56' E 012°39'815.3
2018-May-21 06:01N 56°03' E 012°39'714.8
2018-May-21 05:31N 56°08' E 012°29'816.0
2018-May-21 05:00N 56°16' E 012°23'815.7
2018-May-21 04:31N 56°23' E 012°20'815.9
2018-May-21 04:00N 56°31' E 012°16'816.5
2018-May-21 03:30N 56°39' E 012°12'1017.0
2018-May-21 02:54N 56°49' E 012°06'2616.3
2018-May-21 01:17N 57°14' E 011°52'516.0
2018-May-21 01:00N 57°18' E 011°47'816.5
2018-May-21 00:31N 57°24' E 011°38'917.2
2018-May-21 00:01N 57°31' E 011°29'917.3
2018-May-20 23:31N 57°38' E 011°20'917.2
2018-May-20 23:01N 57°46' E 011°11'817.0
2018-May-20 22:31N 57°53' E 011°03'916.8
2018-May-20 21:59N 58°01' E 010°56'817.2
2018-May-20 21:31N 58°09' E 010°52'917.0
2018-May-20 21:00N 58°17' E 010°47'816.6
2018-May-20 20:30N 58°25' E 010°42'816.2
2018-May-20 20:01N 58°33' E 010°38'816.0
2018-May-20 19:30N 58°41' E 010°36'816.4
2018-May-20 19:01N 58°49' E 010°35'816.5
2018-May-20 18:31N 58°57' E 010°36'816.5
2018-May-20 18:01N 59°05' E 010°38'816.2
2018-May-20 17:31N 59°13' E 010°37'816.1
2018-May-20 17:00N 59°21' E 010°34'815.6
2018-May-20 16:31N 59°29' E 010°34'816.0
2018-May-20 16:01N 59°37' E 010°38'713.8
2018-May-20 15:30N 59°44' E 010°34'815.4
2018-May-20 15:00N 59°51' E 010°36'510.8
2018-May-20 14:30N 59°54' E 010°45'0 0.1
2018-May-20 14:00N 59°54' E 010°45'0 0.0
2018-May-20 13:29N 59°54' E 010°45'0 0.0
2018-May-20 12:59N 59°54' E 010°45'0 0.0
2018-May-20 12:29N 59°54' E 010°45'0 0.0
2018-May-20 11:59N 59°54' E 010°45'0 0.0
2018-May-20 11:29N 59°54' E 010°45'0 0.0
2018-May-20 10:59N 59°54' E 010°45'0 0.0
2018-May-20 10:29N 59°54' E 010°45'0 0.0
2018-May-20 09:59N 59°54' E 010°45'0 0.0
2018-May-20 09:29N 59°54' E 010°45'0 0.0
2018-May-20 08:59N 59°54' E 010°45'0 0.0
2018-May-20 08:29N 59°54' E 010°45'0 0.0
2018-May-20 07:59N 59°54' E 010°45'0 0.4
2018-May-20 07:30N 59°54' E 010°45'611.6
2018-May-20 07:00N 59°50' E 010°36'714.2
2018-May-20 06:31N 59°43' E 010°35'612.8
2018-May-20 06:00N 59°37' E 010°38'815.2
2018-May-20 05:30N 59°29' E 010°35'815.5
2018-May-20 05:00N 59°22' E 010°35'815.8
2018-May-20 04:30N 59°14' E 010°38'815.5
2018-May-20 04:00N 59°06' E 010°38'815.8
2018-May-20 03:30N 58°58' E 010°36'815.6
2018-May-20 03:00N 58°51' E 010°34'815.6
2018-May-20 02:30N 58°43' E 010°35'816.0
2018-May-20 02:00N 58°35' E 010°36'815.8
2018-May-20 01:30N 58°27' E 010°39'815.8
2018-May-20 01:00N 58°20' E 010°44'816.0
2018-May-20 00:30N 58°12' E 010°49'816.0
2018-May-20 00:00N 58°05' E 010°55'816.5
2018-May-19 23:30N 57°57' E 011°00'816.8
2018-May-19 23:00N 57°49' E 011°06'816.3
2018-May-19 22:30N 57°42' E 011°12'816.3
2018-May-19 22:00N 57°34' E 011°19'816.3
2018-May-19 21:30N 57°27' E 011°26'816.2
2018-May-19 21:00N 57°20' E 011°32'816.7
2018-May-19 20:30N 57°12' E 011°38'816.3
2018-May-19 20:00N 57°04' E 011°43'816.5
2018-May-19 19:30N 56°57' E 011°49'816.8
2018-May-19 19:00N 56°49' E 011°56'816.9
2018-May-19 18:30N 56°42' E 012°04'816.5
2018-May-19 18:00N 56°35' E 012°10'816.4
2018-May-19 17:30N 56°27' E 012°16'917.2
2018-May-19 17:00N 56°19' E 012°22'917.3
2018-May-19 16:30N 56°11' E 012°28'917.5
2018-May-19 16:00N 56°04' E 012°38'816.6
2018-May-19 15:30N 55°57' E 012°43'816.0
2018-May-19 15:00N 55°49' E 012°43'714.0
2018-May-19 14:30N 55°42' E 012°37'1 1.1
2018-May-19 13:59N 55°42' E 012°36'0 0.0
2018-May-19 13:29N 55°42' E 012°36'0 0.0
2018-May-19 12:59N 55°42' E 012°36'0 0.0
2018-May-19 12:29N 55°42' E 012°36'0 0.0
2018-May-19 11:59N 55°42' E 012°36'0 0.0
2018-May-19 11:29N 55°42' E 012°36'0 0.0
2018-May-19 10:59N 55°42' E 012°36'0 0.0
2018-May-19 10:29N 55°42' E 012°36'0 0.0
2018-May-19 09:59N 55°42' E 012°36'0 0.0
2018-May-19 09:29N 55°42' E 012°36'0 0.0
2018-May-19 08:59N 55°42' E 012°36'0 0.0
2018-May-19 08:29N 55°42' E 012°36'0 0.0
2018-May-19 07:59N 55°42' E 012°36'0 0.7
2018-May-19 07:30N 55°42' E 012°36'510.3
2018-May-19 07:01N 55°47' E 012°42'815.1
2018-May-19 06:31N 55°54' E 012°39'815.5
2018-May-19 06:01N 56°02' E 012°39'713.7
2018-May-19 05:31N 56°07' E 012°31'814.9
2018-May-19 05:00N 56°14' E 012°25'1615.5
2018-May-19 03:58N 56°29' E 012°16'4516.7
2018-May-19 01:16N 57°12' E 011°53'416.6
2018-May-19 01:01N 57°16' E 011°49'816.7
2018-May-19 00:31N 57°23' E 011°41'816.8
2018-May-19 00:01N 57°31' E 011°34'917.2
2018-May-18 23:31N 57°39' E 011°29'917.6
2018-May-18 23:01N 57°47' E 011°23'917.4
2018-May-18 22:31N 57°55' E 011°16'817.0
2018-May-18 22:01N 58°02' E 011°09'917.0
2018-May-18 21:30N 58°10' E 011°01'816.9
2018-May-18 21:01N 58°17' E 010°54'816.4
2018-May-18 20:30N 58°25' E 010°47'816.3
2018-May-18 20:01N 58°32' E 010°40'816.5
2018-May-18 19:31N 58°40' E 010°36'917.3
2018-May-18 19:01N 58°49' E 010°35'917.6
2018-May-18 18:31N 58°57' E 010°36'917.1
2018-May-18 18:01N 59°06' E 010°38'817.0
2018-May-18 17:31N 59°14' E 010°37'917.1
2018-May-18 17:01N 59°23' E 010°34'815.9
2018-May-18 16:31N 59°31' E 010°35'612.9
2018-May-18 16:00N 59°37' E 010°38'713.6
2018-May-18 15:30N 59°44' E 010°34'815.9
2018-May-18 15:00N 59°51' E 010°37'5 9.8
2018-May-18 14:30N 59°54' E 010°45'0 0.0
2018-May-18 13:58N 59°54' E 010°45'0 0.0
2018-May-18 13:28N 59°54' E 010°45'0 0.0
2018-May-18 12:58N 59°54' E 010°45'0 0.0
2018-May-18 12:28N 59°54' E 010°45'0 0.0
2018-May-18 11:58N 59°54' E 010°45'0 0.0
2018-May-18 11:28N 59°54' E 010°45'0 0.0
2018-May-18 10:58N 59°54' E 010°45'0 0.0
2018-May-18 10:31N 59°54' E 010°45'0 0.0
2018-May-18 09:58N 59°54' E 010°45'0 0.0
2018-May-18 09:28N 59°54' E 010°45'0 0.0
2018-May-18 08:58N 59°54' E 010°45'0 0.0
2018-May-18 08:28N 59°54' E 010°45'0 0.0
2018-May-18 08:01N 59°54' E 010°45'0 0.4
2018-May-18 07:28N 59°54' E 010°45'510.4
2018-May-18 07:00N 59°51' E 010°37'714.3
2018-May-18 06:30N 59°44' E 010°35'713.0
2018-May-18 06:00N 59°38' E 010°38'815.3
2018-May-18 05:31N 59°30' E 010°35'815.7
2018-May-18 05:00N 59°22' E 010°35'816.5
2018-May-18 04:31N 59°14' E 010°38'816.0
2018-May-18 04:00N 59°06' E 010°39'816.0
2018-May-18 03:31N 58°58' E 010°38'816.2
2018-May-18 03:00N 58°50' E 010°36'917.6
2018-May-18 02:30N 58°41' E 010°35'918.3
2018-May-18 02:01N 58°32' E 010°36'1018.5
2018-May-18 01:30N 58°23' E 010°42'918.2
2018-May-18 01:01N 58°15' E 010°48'918.2
2018-May-18 00:30N 58°06' E 010°54'918.2
2018-May-18 00:00N 57°58' E 010°60'917.1
2018-May-17 23:30N 57°50' E 011°05'917.2
2018-May-17 23:00N 57°42' E 011°11'917.1
2018-May-17 22:31N 57°34' E 011°19'917.0
2018-May-17 22:01N 57°27' E 011°27'917.0
2018-May-17 21:30N 57°19' E 011°33'816.8
2018-May-17 21:00N 57°11' E 011°38'816.5
2018-May-17 20:30N 57°03' E 011°43'1016.3
2018-May-17 19:53N 56°54' E 011°52'5016.5
2018-May-17 16:52N 56°09' E 012°30'616.2
2018-May-17 16:30N 56°05' E 012°37'815.4
2018-May-17 16:01N 55°58' E 012°43'815.2
2018-May-17 15:30N 55°50' E 012°44'714.7
2018-May-17 15:00N 55°44' E 012°39'2 4.8
2018-May-17 14:30N 55°42' E 012°36'0 0.0
2018-May-17 14:00N 55°42' E 012°36'0 0.0
2018-May-17 13:30N 55°42' E 012°36'0 0.0
2018-May-17 13:00N 55°42' E 012°36'0 0.0
2018-May-17 12:30N 55°42' E 012°36'0 0.0
2018-May-17 12:00N 55°42' E 012°36'0 0.0
2018-May-17 11:30N 55°42' E 012°36'0 0.0
2018-May-17 11:00N 55°42' E 012°36'0 0.0
2018-May-17 10:30N 55°42' E 012°36'0 0.0
2018-May-17 10:00N 55°42' E 012°36'0 0.0
2018-May-17 09:30N 55°42' E 012°36'0 0.0
2018-May-17 09:00N 55°42' E 012°36'0 0.0
2018-May-17 08:30N 55°42' E 012°36'0 0.0
2018-May-17 08:00N 55°42' E 012°36'0 0.8
2018-May-17 07:31N 55°42' E 012°36'511.0
2018-May-17 07:00N 55°47' E 012°42'815.4
2018-May-17 06:30N 55°54' E 012°39'815.9
2018-May-17 06:00N 56°02' E 012°39'816.3
2018-May-17 05:31N 56°08' E 012°29'815.8
2018-May-17 05:00N 56°15' E 012°22'815.6
2018-May-17 04:31N 56°23' E 012°20'816.2
2018-May-17 04:01N 56°31' E 012°15'816.4
2018-May-17 03:30N 56°39' E 012°11'816.5
2018-May-17 03:01N 56°46' E 012°06'816.7
2018-May-17 02:30N 56°54' E 012°02'1016.6
2018-May-17 01:54N 57°04' E 011°57'616.6
2018-May-17 01:30N 57°10' E 011°54'816.8
2018-May-17 01:00N 57°18' E 011°48'917.3
2018-May-17 00:30N 57°26' E 011°40'917.2
2018-May-17 00:00N 57°33' E 011°32'917.6
2018-May-16 23:30N 57°41' E 011°26'917.4
2018-May-16 23:00N 57°50' E 011°21'917.1
2018-May-16 22:30N 57°58' E 011°16'816.4
2018-May-16 22:01N 58°05' E 011°10'816.2
2018-May-16 21:30N 58°13' E 011°05'816.0
2018-May-16 21:01N 58°21' E 010°60'815.9
2018-May-16 20:31N 58°28' E 010°55'816.4
2018-May-16 20:00N 58°36' E 010°49'917.0
2018-May-16 19:30N 58°44' E 010°45'917.7
2018-May-16 19:00N 58°53' E 010°42'917.5
2018-May-16 18:30N 59°01' E 010°40'816.9
2018-May-16 18:00N 59°10' E 010°38'817.0
2018-May-16 17:31N 59°18' E 010°36'816.9
2018-May-16 17:00N 59°27' E 010°33'816.0
2018-May-16 16:30N 59°34' E 010°38'612.8
2018-May-16 16:01N 59°40' E 010°37'714.6
2018-May-16 15:31N 59°48' E 010°34'714.3
2018-May-16 15:00N 59°54' E 010°42'2 3.1
2018-May-16 14:30N 59°54' E 010°45'0 0.0
2018-May-16 13:59N 59°54' E 010°45'0 0.0
2018-May-16 13:29N 59°54' E 010°45'  
Track history (hours):
 
Tides and Currents Weather Stations Pressure Air Temp Water Temp Dewpoint Dewpoint Depression Visibility Wind Speed Wind Dir Waves Ship Positions

Crown Of Scandinavia

Last reported at 2018-May-26 13:29 UTC. Time now 2018-May-26 13:49 UTC.
Position N 59°54' E 010°45'.

Length 171 m; draft 6.3 m.

Type: Ship. MMSI: 219592000.

Date/timePositionNaut miles runAvg speedWind from/ knotsBaromVisibWave heightAir tempDewpointWater temp
2018-May-26 13:29N 59°54' E 010°45'0 0.0
2018-May-26 12:59N 59°54' E 010°45'0 0.0
2018-May-26 12:29N 59°54' E 010°45'0 0.0
2018-May-26 11:59N 59°54' E 010°45'0 0.0
2018-May-26 11:29N 59°54' E 010°45'0 0.0
2018-May-26 10:59N 59°54' E 010°45'0 0.0
2018-May-26 10:29N 59°54' E 010°45'0 0.0
2018-May-26 09:59N 59°54' E 010°45'0 0.0
2018-May-26 09:29N 59°54' E 010°45'0 0.0
2018-May-26 08:59N 59°54' E 010°45'0 0.0
2018-May-26 08:29N 59°54' E 010°45'0 0.0
2018-May-26 07:59N 59°54' E 010°45'1 1.8
2018-May-26 07:30N 59°54' E 010°43'714.4
2018-May-26 07:00N 59°48' E 010°35'714.9
2018-May-26 06:31N 59°41' E 010°37'1313.1
2018-May-26 05:30N 59°28' E 010°34'714.8
2018-May-26 05:00N 59°20' E 010°36'714.8
2018-May-26 04:30N 59°13' E 010°38'714.7
2018-May-26 04:00N 59°06' E 010°39'815.1
2018-May-26 03:30N 58°58' E 010°39'714.9
2018-May-26 03:01N 58°51' E 010°39'815.6
2018-May-26 02:30N 58°43' E 010°39'815.7
2018-May-26 02:00N 58°35' E 010°39'815.3
2018-May-26 01:30N 58°27' E 010°39'815.6
2018-May-26 01:00N 58°20' E 010°44'816.1
2018-May-26 00:29N 58°12' E 010°49'816.3
2018-May-26 00:00N 58°05' E 010°55'917.0
2018-May-25 23:30N 57°57' E 011°00'817.0
2018-May-25 23:00N 57°49' E 011°06'917.3
2018-May-25 22:30N 57°41' E 011°13'917.1
2018-May-25 22:00N 57°34' E 011°21'816.7
2018-May-25 21:30N 57°26' E 011°28'917.1
2018-May-25 21:00N 57°18' E 011°33'917.7
2018-May-25 20:30N 57°10' E 011°38'4217.1
2018-May-25 18:04N 56°32' E 012°12'116.4
2018-May-25 18:00N 56°31' E 012°12'816.2
2018-May-25 17:30N 56°24' E 012°18'916.8
2018-May-25 16:59N 56°16' E 012°25'817.0
2018-May-25 16:30N 56°09' E 012°30'816.8
2018-May-25 16:00N 56°02' E 012°40'816.2
2018-May-25 15:31N 55°55' E 012°45'816.0
2018-May-25 15:00N 55°47' E 012°42'611.3
2018-May-25 14:30N 55°42' E 012°36'0 0.0
2018-May-25 14:00N 55°42' E 012°36'0 0.0
2018-May-25 13:30N 55°42' E 012°36'0 0.0
2018-May-25 13:00N 55°42' E 012°36'0 0.0
2018-May-25 12:30N 55°42' E 012°36'0 0.0
2018-May-25 12:00N 55°42' E 012°36'0 0.0
2018-May-25 11:30N 55°42' E 012°36'0 0.0
2018-May-25 11:00N 55°42' E 012°36'0 0.0
2018-May-25 10:30N 55°42' E 012°36'0 0.0
2018-May-25 10:00N 55°42' E 012°36'0 0.0
2018-May-25 09:30N 55°42' E 012°36'0 0.0
2018-May-25 09:00N 55°42' E 012°36'0 0.0
2018-May-25 08:30N 55°42' E 012°36'0 0.0
2018-May-25 08:00N 55°42' E 012°36'0 0.7
2018-May-25 07:31N 55°42' E 012°36'612.0
2018-May-25 07:01N 55°47' E 012°42'815.9
2018-May-25 06:31N 55°55' E 012°39'816.1
2018-May-25 06:00N 56°03' E 012°39'815.4
2018-May-25 05:31N 56°09' E 012°30'815.4
2018-May-25 05:00N 56°16' E 012°24'815.8
2018-May-25 04:29N 56°24' E 012°20'1216.7
2018-May-25 03:46N 56°36' E 012°13'416.4
2018-May-25 03:30N 56°40' E 012°11'1616.0
2018-May-25 02:29N 56°55' E 012°02'1116.3
2018-May-25 01:49N 57°06' E 011°56'516.4
2018-May-25 01:30N 57°11' E 011°54'816.5
2018-May-25 01:01N 57°18' E 011°48'816.5
2018-May-25 00:31N 57°25' E 011°41'816.9
2018-May-25 00:01N 57°33' E 011°33'917.2
2018-May-24 23:30N 57°41' E 011°28'917.0
2018-May-24 23:00N 57°49' E 011°22'816.9
2018-May-24 22:31N 57°57' E 011°16'816.7
2018-May-24 22:00N 58°05' E 011°10'816.5
2018-May-24 21:30N 58°11' E 011°00'816.2
2018-May-24 21:00N 58°17' E 010°50'816.5
2018-May-24 20:31N 58°24' E 010°42'816.6
2018-May-24 20:01N 58°32' E 010°37'817.0
2018-May-24 19:30N 58°40' E 010°36'816.8
2018-May-24 19:00N 58°49' E 010°34'816.6
2018-May-24 18:30N 58°57' E 010°36'816.9
2018-May-24 18:01N 59°05' E 010°38'816.5
2018-May-24 17:31N 59°14' E 010°37'816.9
2018-May-24 17:00N 59°22' E 010°34'816.6
2018-May-24 16:31N 59°30' E 010°35'713.2
2018-May-24 16:00N 59°37' E 010°38'611.5
2018-May-24 15:30N 59°42' E 010°35'715.0
2018-May-24 15:00N 59°50' E 010°35'712.3
2018-May-24 14:28N 59°54' E 010°45'0 0.4
2018-May-24 14:00N 59°54' E 010°45'0 0.0
2018-May-24 13:31N 59°54' E 010°45'0 0.0
2018-May-24 09:01N 59°54' E 010°45'0 0.0
2018-May-24 08:30N 59°54' E 010°45'0 0.0
2018-May-24 08:01N 59°54' E 010°45'1 2.5
2018-May-24 07:30N 59°54' E 010°42'815.7
2018-May-24 07:00N 59°47' E 010°35'714.0
2018-May-24 06:30N 59°40' E 010°37'713.1
2018-May-24 06:00N 59°34' E 010°38'715.0
2018-May-24 05:30N 59°26' E 010°34'815.0
2018-May-24 05:01N 59°19' E 010°36'815.3
2018-May-24 04:31N 59°11' E 010°39'815.5
2018-May-24 04:01N 59°04' E 010°41'815.5
2018-May-24 03:31N 58°56' E 010°42'815.2
2018-May-24 03:00N 58°48' E 010°44'815.8
2018-May-24 02:31N 58°41' E 010°46'815.7
2018-May-24 02:01N 58°33' E 010°50'815.8
2018-May-24 01:31N 58°25' E 010°54'815.8
2018-May-24 01:00N 58°18' E 010°59'816.0
2018-May-24 00:31N 58°10' E 011°03'816.0
2018-May-24 00:01N 58°03' E 011°07'816.2
2018-May-23 23:30N 57°55' E 011°12'816.3
2018-May-23 23:00N 57°47' E 011°17'816.2
2018-May-23 22:31N 57°40' E 011°22'816.1
2018-May-23 22:01N 57°32' E 011°26'816.7
2018-May-23 21:30N 57°24' E 011°31'917.0
2018-May-23 21:00N 57°16' E 011°35'816.8
2018-May-23 20:31N 57°08' E 011°41'916.9
2018-May-23 20:00N 56°60' E 011°47'816.8
2018-May-23 19:31N 56°52' E 011°54'816.9
2018-May-23 19:01N 56°45' E 012°01'816.6
2018-May-23 18:30N 56°37' E 012°08'3116.4
2018-May-23 16:38N 56°09' E 012°30'217.1
2018-May-23 16:30N 56°08' E 012°32'816.5
2018-May-23 16:01N 56°01' E 012°40'815.9
2018-May-23 15:31N 55°53' E 012°44'714.7
2018-May-23 15:00N 55°46' E 012°41'510.2
2018-May-23 14:30N 55°42' E 012°36'0 0.0
2018-May-23 14:00N 55°42' E 012°36'0 0.0
2018-May-23 13:30N 55°42' E 012°36'0 0.0
2018-May-23 13:00N 55°42' E 012°36'0 0.0
2018-May-23 12:30N 55°42' E 012°36'0 0.0
2018-May-23 12:00N 55°42' E 012°36'0 0.0
2018-May-23 11:30N 55°42' E 012°36'0 0.0
2018-May-23 11:00N 55°42' E 012°36'0 0.0
2018-May-23 10:30N 55°42' E 012°36'0 0.0
2018-May-23 09:57N 55°42' E 012°36'0 0.0
2018-May-23 09:30N 55°42' E 012°36'0 0.0
2018-May-23 09:00N 55°42' E 012°36'0 0.0
2018-May-23 08:30N 55°42' E 012°36'0 0.0
2018-May-23 08:00N 55°42' E 012°36'0 0.8
2018-May-23 07:30N 55°42' E 012°36'611.9
2018-May-23 07:00N 55°47' E 012°42'815.4
2018-May-23 06:30N 55°55' E 012°39'815.9
2018-May-23 06:00N 56°03' E 012°39'815.6
2018-May-23 05:30N 56°08' E 012°29'815.2
2018-May-23 05:00N 56°16' E 012°25'815.9
2018-May-23 04:30N 56°23' E 012°21'916.2
2018-May-23 03:56N 56°32' E 012°15'3616.3
2018-May-23 01:45N 57°06' E 011°57'416.4
2018-May-23 01:29N 57°10' E 011°54'816.4
2018-May-23 01:00N 57°17' E 011°48'816.7
2018-May-23 00:31N 57°25' E 011°41'917.0
2018-May-23 00:00N 57°32' E 011°33'917.4
2018-May-22 23:31N 57°40' E 011°28'816.9
2018-May-22 23:00N 57°48' E 011°22'817.0
2018-May-22 22:30N 57°56' E 011°17'816.9
2018-May-22 22:00N 58°04' E 011°12'816.6
2018-May-22 21:30N 58°12' E 011°06'816.3
2018-May-22 21:00N 58°20' E 011°01'816.3
2018-May-22 20:30N 58°27' E 010°55'816.4
2018-May-22 20:00N 58°35' E 010°50'816.0
2018-May-22 19:30N 58°43' E 010°45'816.2
2018-May-22 19:00N 58°51' E 010°43'816.9
2018-May-22 18:30N 58°59' E 010°41'816.7
2018-May-22 18:00N 59°07' E 010°39'816.5
2018-May-22 17:30N 59°15' E 010°37'816.4
2018-May-22 17:00N 59°24' E 010°34'816.2
2018-May-22 16:30N 59°32' E 010°35'713.4
2018-May-22 16:00N 59°38' E 010°37'713.8
2018-May-22 15:30N 59°45' E 010°33'816.1
2018-May-22 15:00N 59°52' E 010°38'4 7.4
2018-May-22 14:31N 59°54' E 010°45'0 0.0
2018-May-22 13:59N 59°54' E 010°45'0 0.0
2018-May-22 13:29N 59°54' E 010°45'0 0.0
2018-May-22 12:59N 59°54' E 010°45'0 0.0
2018-May-22 12:29N 59°54' E 010°45'0 0.0
2018-May-22 11:59N 59°54' E 010°45'0 0.0
2018-May-22 11:29N 59°54' E 010°45'0 0.0
2018-May-22 10:59N 59°54' E 010°45'0 0.0
2018-May-22 10:29N 59°54' E 010°45'0 0.0
2018-May-22 09:59N 59°54' E 010°45'0 0.0
2018-May-22 09:29N 59°54' E 010°45'0 0.0
2018-May-22 08:59N 59°54' E 010°45'0 0.0
2018-May-22 08:29N 59°54' E 010°45'0 0.0
2018-May-22 07:59N 59°54' E 010°45'0 0.5
2018-May-22 07:31N 59°54' E 010°44'612.0
2018-May-22 07:00N 59°50' E 010°36'713.9
2018-May-22 06:30N 59°43' E 010°35'713.7
2018-May-22 06:00N 59°36' E 010°38'815.0
2018-May-22 05:30N 59°29' E 010°35'714.9
2018-May-22 05:00N 59°21' E 010°36'815.3
2018-May-22 04:31N 59°14' E 010°39'815.4
2018-May-22 04:00N 59°06' E 010°40'815.8
2018-May-22 03:30N 58°58' E 010°42'815.2
2018-May-22 03:00N 58°51' E 010°44'815.4
2018-May-22 02:31N 58°43' E 010°45'816.3
2018-May-22 02:01N 58°35' E 010°50'816.5
2018-May-22 01:30N 58°28' E 010°55'816.5
2018-May-22 01:00N 58°20' E 010°60'816.4
2018-May-22 00:30N 58°12' E 011°05'816.2
2018-May-22 00:00N 58°05' E 011°11'816.1
2018-May-21 23:30N 57°57' E 011°16'816.2
2018-May-21 23:01N 57°49' E 011°21'816.4
2018-May-21 22:31N 57°42' E 011°28'816.2
2018-May-21 22:00N 57°34' E 011°32'816.3
2018-May-21 21:30N 57°27' E 011°38'816.5
2018-May-21 21:00N 57°20' E 011°45'816.7
2018-May-21 20:30N 57°13' E 011°54'816.4
2018-May-21 20:01N 57°05' E 011°60'816.3
2018-May-21 19:30N 56°57' E 012°05'1215.8
2018-May-21 18:44N 56°46' E 012°12'3716.6
2018-May-21 16:30N 56°10' E 012°29'917.8
2018-May-21 16:01N 56°03' E 012°39'816.8
2018-May-21 15:30N 55°55' E 012°44'816.1
2018-May-21 15:00N 55°47' E 012°42'611.7
2018-May-21 14:30N 55°42' E 012°37'1 1.1
2018-May-21 14:00N 55°42' E 012°36'0 0.0
2018-May-21 13:30N 55°42' E 012°36'0 0.0
2018-May-21 13:00N 55°42' E 012°36'0 0.0
2018-May-21 12:30N 55°42' E 012°36'0 0.0
2018-May-21 12:00N 55°42' E 012°36'0 0.0
2018-May-21 11:30N 55°42' E 012°36'0 0.0
2018-May-21 11:00N 55°42' E 012°36'0 0.0
2018-May-21 10:30N 55°42' E 012°36'0 0.0
2018-May-21 10:00N 55°42' E 012°36'0 0.0
2018-May-21 09:30N 55°42' E 012°36'0 0.0
2018-May-21 09:00N 55°42' E 012°36'0 0.0
2018-May-21 08:30N 55°42' E 012°36'0 0.0
2018-May-21 08:00N 55°42' E 012°36'1 2.0
2018-May-21 07:30N 55°43' E 012°37'613.0
2018-May-21 07:01N 55°49' E 012°42'714.8
2018-May-21 06:31N 55°56' E 012°39'815.3
2018-May-21 06:01N 56°03' E 012°39'714.8
2018-May-21 05:31N 56°08' E 012°29'816.0
2018-May-21 05:00N 56°16' E 012°23'815.7
2018-May-21 04:31N 56°23' E 012°20'815.9
2018-May-21 04:00N 56°31' E 012°16'816.5
2018-May-21 03:30N 56°39' E 012°12'1017.0
2018-May-21 02:54N 56°49' E 012°06'2616.3
2018-May-21 01:17N 57°14' E 011°52'516.0
2018-May-21 01:00N 57°18' E 011°47'816.5
2018-May-21 00:31N 57°24' E 011°38'917.2
2018-May-21 00:01N 57°31' E 011°29'917.3
2018-May-20 23:31N 57°38' E 011°20'917.2
2018-May-20 23:01N 57°46' E 011°11'817.0
2018-May-20 22:31N 57°53' E 011°03'916.8
2018-May-20 21:59N 58°01' E 010°56'817.2
2018-May-20 21:31N 58°09' E 010°52'917.0
2018-May-20 21:00N 58°17' E 010°47'816.6
2018-May-20 20:30N 58°25' E 010°42'816.2
2018-May-20 20:01N 58°33' E 010°38'816.0
2018-May-20 19:30N 58°41' E 010°36'816.4
2018-May-20 19:01N 58°49' E 010°35'816.5
2018-May-20 18:31N 58°57' E 010°36'816.5
2018-May-20 18:01N 59°05' E 010°38'816.2
2018-May-20 17:31N 59°13' E 010°37'816.1
2018-May-20 17:00N 59°21' E 010°34'815.6
2018-May-20 16:31N 59°29' E 010°34'816.0
2018-May-20 16:01N 59°37' E 010°38'713.8
2018-May-20 15:30N 59°44' E 010°34'815.4
2018-May-20 15:00N 59°51' E 010°36'510.8
2018-May-20 14:30N 59°54' E 010°45'0 0.1
2018-May-20 14:00N 59°54' E 010°45'0 0.0
2018-May-20 13:29N 59°54' E 010°45'0 0.0
2018-May-20 12:59N 59°54' E 010°45'0 0.0
2018-May-20 12:29N 59°54' E 010°45'0 0.0
2018-May-20 11:59N 59°54' E 010°45'0 0.0
2018-May-20 11:29N 59°54' E 010°45'0 0.0
2018-May-20 10:59N 59°54' E 010°45'0 0.0
2018-May-20 10:29N 59°54' E 010°45'0 0.0
2018-May-20 09:59N 59°54' E 010°45'0 0.0
2018-May-20 09:29N 59°54' E 010°45'0 0.0
2018-May-20 08:59N 59°54' E 010°45'0 0.0
2018-May-20 08:29N 59°54' E 010°45'0 0.0
2018-May-20 07:59N 59°54' E 010°45'0 0.4
2018-May-20 07:30N 59°54' E 010°45'611.6
2018-May-20 07:00N 59°50' E 010°36'714.2
2018-May-20 06:31N 59°43' E 010°35'612.8
2018-May-20 06:00N 59°37' E 010°38'815.2
2018-May-20 05:30N 59°29' E 010°35'815.5
2018-May-20 05:00N 59°22' E 010°35'815.8
2018-May-20 04:30N 59°14' E 010°38'815.5
2018-May-20 04:00N 59°06' E 010°38'815.8
2018-May-20 03:30N 58°58' E 010°36'815.6
2018-May-20 03:00N 58°51' E 010°34'815.6
2018-May-20 02:30N 58°43' E 010°35'816.0
2018-May-20 02:00N 58°35' E 010°36'815.8
2018-May-20 01:30N 58°27' E 010°39'815.8
2018-May-20 01:00N 58°20' E 010°44'816.0
2018-May-20 00:30N 58°12' E 010°49'816.0
2018-May-20 00:00N 58°05' E 010°55'816.5
2018-May-19 23:30N 57°57' E 011°00'816.8
2018-May-19 23:00N 57°49' E 011°06'816.3
2018-May-19 22:30N 57°42' E 011°12'816.3
2018-May-19 22:00N 57°34' E 011°19'816.3
2018-May-19 21:30N 57°27' E 011°26'816.2
2018-May-19 21:00N 57°20' E 011°32'816.7
2018-May-19 20:30N 57°12' E 011°38'816.3
2018-May-19 20:00N 57°04' E 011°43'816.5
2018-May-19 19:30N 56°57' E 011°49'816.8
2018-May-19 19:00N 56°49' E 011°56'816.9
2018-May-19 18:30N 56°42' E 012°04'816.5
2018-May-19 18:00N 56°35' E 012°10'816.4
2018-May-19 17:30N 56°27' E 012°16'917.2
2018-May-19 17:00N 56°19' E 012°22'917.3
2018-May-19 16:30N 56°11' E 012°28'917.5
2018-May-19 16:00N 56°04' E 012°38'816.6
2018-May-19 15:30N 55°57' E 012°43'816.0
2018-May-19 15:00N 55°49' E 012°43'714.0
2018-May-19 14:30N 55°42' E 012°37'1 1.1
2018-May-19 13:59N 55°42' E 012°36'0 0.0
2018-May-19 13:29N 55°42' E 012°36'0 0.0
2018-May-19 12:59N 55°42' E 012°36'0 0.0
2018-May-19 12:29N 55°42' E 012°36'0 0.0
2018-May-19 11:59N 55°42' E 012°36'0 0.0
2018-May-19 11:29N 55°42' E 012°36'0 0.0
2018-May-19 10:59N 55°42' E 012°36'0 0.0
2018-May-19 10:29N 55°42' E 012°36'0 0.0
2018-May-19 09:59N 55°42' E 012°36'0 0.0
2018-May-19 09:29N 55°42' E 012°36'0 0.0
2018-May-19 08:59N 55°42' E 012°36'0 0.0
2018-May-19 08:29N 55°42' E 012°36'0 0.0
2018-May-19 07:59N 55°42' E 012°36'0 0.7
2018-May-19 07:30N 55°42' E 012°36'510.3
2018-May-19 07:01N 55°47' E 012°42'815.1
2018-May-19 06:31N 55°54' E 012°39'815.5
2018-May-19 06:01N 56°02' E 012°39'713.7
2018-May-19 05:31N 56°07' E 012°31'814.9
2018-May-19 05:00N 56°14' E 012°25'1615.5
2018-May-19 03:58N 56°29' E 012°16'4516.7
2018-May-19 01:16N 57°12' E 011°53'416.6
2018-May-19 01:01N 57°16' E 011°49'816.7
2018-May-19 00:31N 57°23' E 011°41'816.8
2018-May-19 00:01N 57°31' E 011°34'917.2
2018-May-18 23:31N 57°39' E 011°29'917.6
2018-May-18 23:01N 57°47' E 011°23'917.4
2018-May-18 22:31N 57°55' E 011°16'817.0
2018-May-18 22:01N 58°02' E 011°09'917.0
2018-May-18 21:30N 58°10' E 011°01'816.9
2018-May-18 21:01N 58°17' E 010°54'816.4
2018-May-18 20:30N 58°25' E 010°47'816.3
2018-May-18 20:01N 58°32' E 010°40'816.5
2018-May-18 19:31N 58°40' E 010°36'917.3
2018-May-18 19:01N 58°49' E 010°35'917.6
2018-May-18 18:31N 58°57' E 010°36'917.1
2018-May-18 18:01N 59°06' E 010°38'817.0
2018-May-18 17:31N 59°14' E 010°37'917.1
2018-May-18 17:01N 59°23' E 010°34'815.9
2018-May-18 16:31N 59°31' E 010°35'612.9
2018-May-18 16:00N 59°37' E 010°38'713.6
2018-May-18 15:30N 59°44' E 010°34'815.9
2018-May-18 15:00N 59°51' E 010°37'5 9.8
2018-May-18 14:30N 59°54' E 010°45'0 0.0
2018-May-18 13:58N 59°54' E 010°45'0 0.0
2018-May-18 13:28N 59°54' E 010°45'0 0.0
2018-May-18 12:58N 59°54' E 010°45'0 0.0
2018-May-18 12:28N 59°54' E 010°45'0 0.0
2018-May-18 11:58N 59°54' E 010°45'0 0.0
2018-May-18 11:28N 59°54' E 010°45'0 0.0
2018-May-18 10:58N 59°54' E 010°45'0 0.0
2018-May-18 10:31N 59°54' E 010°45'0 0.0
2018-May-18 09:58N 59°54' E 010°45'0 0.0
2018-May-18 09:28N 59°54' E 010°45'0 0.0
2018-May-18 08:58N 59°54' E 010°45'0 0.0
2018-May-18 08:28N 59°54' E 010°45'0 0.0
2018-May-18 08:01N 59°54' E 010°45'0 0.4
2018-May-18 07:28N 59°54' E 010°45'510.4
2018-May-18 07:00N 59°51' E 010°37'714.3
2018-May-18 06:30N 59°44' E 010°35'713.0
2018-May-18 06:00N 59°38' E 010°38'815.3
2018-May-18 05:31N 59°30' E 010°35'815.7
2018-May-18 05:00N 59°22' E 010°35'816.5
2018-May-18 04:31N 59°14' E 010°38'816.0
2018-May-18 04:00N 59°06' E 010°39'816.0
2018-May-18 03:31N 58°58' E 010°38'816.2
2018-May-18 03:00N 58°50' E 010°36'917.6
2018-May-18 02:30N 58°41' E 010°35'918.3
2018-May-18 02:01N 58°32' E 010°36'1018.5
2018-May-18 01:30N 58°23' E 010°42'918.2
2018-May-18 01:01N 58°15' E 010°48'918.2
2018-May-18 00:30N 58°06' E 010°54'918.2
2018-May-18 00:00N 57°58' E 010°60'917.1
2018-May-17 23:30N 57°50' E 011°05'917.2
2018-May-17 23:00N 57°42' E 011°11'917.1
2018-May-17 22:31N 57°34' E 011°19'917.0
2018-May-17 22:01N 57°27' E 011°27'917.0
2018-May-17 21:30N 57°19' E 011°33'816.8
2018-May-17 21:00N 57°11' E 011°38'816.5
2018-May-17 20:30N 57°03' E 011°43'1016.3
2018-May-17 19:53N 56°54' E 011°52'5016.5
2018-May-17 16:52N 56°09' E 012°30'616.2
2018-May-17 16:30N 56°05' E 012°37'815.4
2018-May-17 16:01N 55°58' E 012°43'815.2
2018-May-17 15:30N 55°50' E 012°44'714.7
2018-May-17 15:00N 55°44' E 012°39'2 4.8
2018-May-17 14:30N 55°42' E 012°36'0 0.0
2018-May-17 14:00N 55°42' E 012°36'0 0.0
2018-May-17 13:30N 55°42' E 012°36'0 0.0
2018-May-17 13:00N 55°42' E 012°36'0 0.0
2018-May-17 12:30N 55°42' E 012°36'0 0.0
2018-May-17 12:00N 55°42' E 012°36'0 0.0
2018-May-17 11:30N 55°42' E 012°36'0 0.0
2018-May-17 11:00N 55°42' E 012°36'0 0.0
2018-May-17 10:30N 55°42' E 012°36'0 0.0
2018-May-17 10:00N 55°42' E 012°36'0 0.0
2018-May-17 09:30N 55°42' E 012°36'0 0.0
2018-May-17 09:00N 55°42' E 012°36'0 0.0
2018-May-17 08:30N 55°42' E 012°36'0 0.0
2018-May-17 08:00N 55°42' E 012°36'0 0.8
2018-May-17 07:31N 55°42' E 012°36'511.0
2018-May-17 07:00N 55°47' E 012°42'815.4
2018-May-17 06:30N 55°54' E 012°39'815.9
2018-May-17 06:00N 56°02' E 012°39'816.3
2018-May-17 05:31N 56°08' E 012°29'815.8
2018-May-17 05:00N 56°15' E 012°22'815.6
2018-May-17 04:31N 56°23' E 012°20'816.2
2018-May-17 04:01N 56°31' E 012°15'816.4
2018-May-17 03:30N 56°39' E 012°11'816.5
2018-May-17 03:01N 56°46' E 012°06'816.7
2018-May-17 02:30N 56°54' E 012°02'1016.6
2018-May-17 01:54N 57°04' E 011°57'616.6
2018-May-17 01:30N 57°10' E 011°54'816.8
2018-May-17 01:00N 57°18' E 011°48'917.3
2018-May-17 00:30N 57°26' E 011°40'917.2
2018-May-17 00:00N 57°33' E 011°32'917.6
2018-May-16 23:30N 57°41' E 011°26'917.4
2018-May-16 23:00N 57°50' E 011°21'917.1
2018-May-16 22:30N 57°58' E 011°16'816.4
2018-May-16 22:01N 58°05' E 011°10'816.2
2018-May-16 21:30N 58°13' E 011°05'816.0
2018-May-16 21:01N 58°21' E 010°60'815.9
2018-May-16 20:31N 58°28' E 010°55'816.4
2018-May-16 20:00N 58°36' E 010°49'917.0
2018-May-16 19:30N 58°44' E 010°45'917.7
2018-May-16 19:00N 58°53' E 010°42'917.5
2018-May-16 18:30N 59°01' E 010°40'816.9
2018-May-16 18:00N 59°10' E 010°38'817.0
2018-May-16 17:31N 59°18' E 010°36'816.9
2018-May-16 17:00N 59°27' E 010°33'816.0
2018-May-16 16:30N 59°34' E 010°38'612.8
2018-May-16 16:01N 59°40' E 010°37'714.6
2018-May-16 15:31N 59°48' E 010°34'714.3
2018-May-16 15:00N 59°54' E 010°42'2 3.1
2018-May-16 14:30N 59°54' E 010°45'0 0.0
2018-May-16 13:59N 59°54' E 010°45'0 0.0
2018-May-16 13:29N 59°54' E 010°45'  

Dump ship's entire track history